createdAt,value
2022-08-09T00:01:00.255Z,962.63
2022-08-09T00:04:00.312Z,962.6
2022-08-09T00:06:59.794Z,962.72
2022-08-09T00:09:59.330Z,962.7
2022-08-09T00:12:58.558Z,962.76
2022-08-09T00:16:02.436Z,962.75
2022-08-09T00:18:58.725Z,962.75
2022-08-09T00:21:58.844Z,962.7
2022-08-09T00:24:59.344Z,962.6
2022-08-09T00:27:58.492Z,962.69
2022-08-09T00:30:59.521Z,962.69
2022-08-09T00:33:59.100Z,962.74
2022-08-09T00:36:59.363Z,962.78
2022-08-09T00:40:13.663Z,962.69
2022-08-09T00:44:10.644Z,962.78
2022-08-09T00:45:59.259Z,962.9
2022-08-09T00:48:58.782Z,962.82
2022-08-09T00:51:58.768Z,962.88
2022-08-09T00:54:58.739Z,962.94
2022-08-09T00:57:59.598Z,963.0
2022-08-09T01:00:59.985Z,962.94
2022-08-09T01:03:59.064Z,962.9
2022-08-09T01:06:58.998Z,962.83
2022-08-09T01:09:59.508Z,962.87
2022-08-09T01:12:58.691Z,962.81
2022-08-09T01:15:59.301Z,962.75
2022-08-09T01:19:02.492Z,962.82
2022-08-09T01:21:59.998Z,962.84
2022-08-09T01:24:59.188Z,962.81
2022-08-09T01:27:59.500Z,962.7
2022-08-09T01:30:59.954Z,962.7
2022-08-09T01:33:59.387Z,962.81
2022-08-09T01:36:59.282Z,962.78
2022-08-09T01:39:59.583Z,962.79
2022-08-09T01:42:59.690Z,962.92
2022-08-09T01:45:58.957Z,962.84
2022-08-09T01:49:00.281Z,962.85
2022-08-09T01:51:58.904Z,962.78
2022-08-09T01:54:59.147Z,962.85
2022-08-09T01:57:59.151Z,962.78
2022-08-09T02:00:59.922Z,962.78
2022-08-09T02:03:59.034Z,962.79
2022-08-09T02:06:59.083Z,962.8
2022-08-09T02:10:01.337Z,962.82
2022-08-09T02:12:59.011Z,962.8
2022-08-09T02:15:59.878Z,962.77
2022-08-09T02:18:59.459Z,962.74
2022-08-09T02:21:58.879Z,962.73
2022-08-09T02:24:58.946Z,962.82
2022-08-09T02:28:03.605Z,962.76
2022-08-09T02:30:59.402Z,962.75
2022-08-09T02:34:12.810Z,962.82
2022-08-09T02:36:59.660Z,962.79
2022-08-09T02:40:01.816Z,962.89
2022-08-09T02:42:59.928Z,962.81
2022-08-09T02:45:59.556Z,962.84
2022-08-09T02:48:59.115Z,962.84
2022-08-09T02:51:59.170Z,962.81
2022-08-09T02:54:58.827Z,962.81
2022-08-09T02:58:32.356Z,962.72
2022-08-09T03:01:04.239Z,962.73
2022-08-09T03:04:16.861Z,962.77
2022-08-09T03:06:59.796Z,962.67
2022-08-09T03:10:00.448Z,962.73
2022-08-09T03:12:59.870Z,962.68
2022-08-09T03:16:06.703Z,962.7
2022-08-09T03:18:58.832Z,962.7
2022-08-09T03:21:59.166Z,962.62
2022-08-09T03:25:25.723Z,962.71
2022-08-09T03:27:59.592Z,962.74
2022-08-09T03:30:59.080Z,962.77
2022-08-09T03:33:58.889Z,962.78
2022-08-09T03:37:00.071Z,962.84
2022-08-09T03:39:58.525Z,962.84
2022-08-09T03:42:59.027Z,962.78
2022-08-09T03:46:04.011Z,962.87
2022-08-09T03:48:59.518Z,962.82
2022-08-09T03:52:00.435Z,962.88
2022-08-09T03:54:59.300Z,962.92
2022-08-09T03:58:06.636Z,962.89
2022-08-09T04:00:59.254Z,962.94
2022-08-09T04:04:02.146Z,963.04
2022-08-09T04:06:59.319Z,963.06
2022-08-09T04:09:59.975Z,963.1
2022-08-09T04:13:00.705Z,963.06
2022-08-09T04:16:19.267Z,963.2
2022-08-09T04:18:59.999Z,963.16
2022-08-09T04:21:59.442Z,963.06
2022-08-09T04:24:59.846Z,963.06
2022-08-09T04:28:02.561Z,963.09
2022-08-09T04:30:59.875Z,963.13
2022-08-09T04:33:59.468Z,963.12
2022-08-09T04:36:59.425Z,963.12
2022-08-09T04:40:00.192Z,963.16
2022-08-09T04:42:59.653Z,963.28
2022-08-09T04:46:01.235Z,963.24
2022-08-09T04:48:58.841Z,963.31
2022-08-09T04:51:59.535Z,963.4
2022-08-09T04:54:58.656Z,963.52
2022-08-09T04:58:01.911Z,963.49
2022-08-09T05:00:59.900Z,963.58
2022-08-09T05:03:59.478Z,963.55
2022-08-09T05:06:59.402Z,963.55
2022-08-09T05:10:01.799Z,963.54
2022-08-09T05:12:59.268Z,963.58
2022-08-09T05:15:59.801Z,963.55
2022-08-09T05:19:00.291Z,963.56
2022-08-09T05:21:59.661Z,963.62
2022-08-09T05:25:02.419Z,963.71
2022-08-09T05:27:59.413Z,963.61
2022-08-09T05:30:59.625Z,963.75
2022-08-09T05:33:59.187Z,963.75
2022-08-09T05:36:58.937Z,963.85
2022-08-09T05:39:59.349Z,963.76
2022-08-09T05:42:58.943Z,963.84
2022-08-09T05:46:00.362Z,963.88
2022-08-09T05:48:59.874Z,963.86
2022-08-09T05:52:00.011Z,963.82
2022-08-09T05:55:03.257Z,963.82
2022-08-09T05:57:59.086Z,963.82
2022-08-09T06:01:00.570Z,963.79
2022-08-09T06:03:59.017Z,963.98
2022-08-09T06:06:59.953Z,963.86
2022-08-09T06:10:02.142Z,963.89
2022-08-09T06:13:11.717Z,963.89
2022-08-09T06:15:59.954Z,963.91
2022-08-09T06:18:59.029Z,963.96
2022-08-09T06:22:00.221Z,963.99
2022-08-09T06:24:59.293Z,964.1
2022-08-09T06:27:59.343Z,964.09
2022-08-09T06:30:59.632Z,964.07
2022-08-09T06:33:58.926Z,964.04
2022-08-09T06:37:00.042Z,964.16
2022-08-09T06:40:00.202Z,964.14
2022-08-09T06:42:59.716Z,964.11
2022-08-09T06:46:06.862Z,964.18
2022-08-09T06:49:00.307Z,964.18
2022-08-09T06:51:59.078Z,964.12
2022-08-09T06:54:58.815Z,964.14
2022-08-09T06:58:03.288Z,964.17
2022-08-09T07:00:59.861Z,964.22
2022-08-09T07:04:03.781Z,964.25
2022-08-09T07:07:00.932Z,964.28
2022-08-09T07:10:10.450Z,964.24
2022-08-09T07:12:59.731Z,964.18
2022-08-09T07:16:43.460Z,964.13
2022-08-09T07:18:59.772Z,964.28
2022-08-09T07:21:59.881Z,964.18
2022-08-09T07:24:59.142Z,964.2
2022-08-09T07:28:00.088Z,964.19
2022-08-09T07:31:00.065Z,964.29
2022-08-09T07:33:59.899Z,964.22
2022-08-09T07:37:02.688Z,964.24
2022-08-09T07:39:59.678Z,964.24
2022-08-09T07:42:59.167Z,964.3
2022-08-09T07:46:01.817Z,964.3
2022-08-09T07:49:00.286Z,964.32
2022-08-09T07:52:05.285Z,964.3
2022-08-09T07:54:59.598Z,964.27
2022-08-09T07:57:59.503Z,964.38
2022-08-09T08:01:06.322Z,964.43
2022-08-09T08:03:59.841Z,964.38
2022-08-09T08:07:00.163Z,964.41
2022-08-09T08:10:10.420Z,964.46
2022-08-09T08:12:59.052Z,964.43
2022-08-09T08:15:59.453Z,964.48
2022-08-09T08:18:59.327Z,964.48
2022-08-09T08:21:59.570Z,964.56
2022-08-09T08:24:59.994Z,964.52
2022-08-09T08:27:58.557Z,964.55
2022-08-09T08:31:06.109Z,964.54
2022-08-09T08:33:59.287Z,964.52
2022-08-09T08:37:01.296Z,964.43
2022-08-09T08:39:59.940Z,964.48
2022-08-09T08:42:59.389Z,964.44
2022-08-09T08:46:03.963Z,964.42
2022-08-09T08:48:59.359Z,964.49
2022-08-09T08:52:01.710Z,964.51
2022-08-09T08:54:58.652Z,964.57
2022-08-09T08:57:59.381Z,964.49
2022-08-09T09:00:59.161Z,964.55
2022-08-09T09:03:59.179Z,964.54
2022-08-09T09:06:58.586Z,964.71
2022-08-09T09:10:04.618Z,964.59
2022-08-09T09:12:59.057Z,964.59
2022-08-09T09:15:59.015Z,964.59
2022-08-09T09:19:22.426Z,964.61
2022-08-09T09:22:00.975Z,964.55
2022-08-09T09:25:39.293Z,964.52
2022-08-09T09:28:06.930Z,964.42
2022-08-09T09:30:58.771Z,964.33
2022-08-09T09:33:59.686Z,964.36
2022-08-09T09:36:59.054Z,964.32
2022-08-09T09:40:00.019Z,964.39
2022-08-09T09:42:58.601Z,964.27
2022-08-09T09:46:41.951Z,964.35
2022-08-09T09:48:58.809Z,964.36
2022-08-09T09:51:59.043Z,964.37
2022-08-09T09:54:58.719Z,964.42
2022-08-09T09:58:01.133Z,964.26
2022-08-09T10:01:00.081Z,964.37
2022-08-09T10:03:59.585Z,964.3
2022-08-09T10:06:58.253Z,964.27
2022-08-09T10:09:59.344Z,964.29
2022-08-09T10:13:00.031Z,964.23
2022-08-09T10:16:54.416Z,964.27
2022-08-09T10:18:59.813Z,964.2
2022-08-09T10:21:59.012Z,964.23
2022-08-09T10:24:58.542Z,964.21
2022-08-09T10:27:58.932Z,964.19
2022-08-09T10:34:18.800Z,964.3
2022-08-09T10:36:58.825Z,964.24
2022-08-09T10:39:59.479Z,964.26
2022-08-09T10:42:59.329Z,964.12
2022-08-09T10:46:00.298Z,964.14
2022-08-09T10:48:58.849Z,964.08
2022-08-09T10:51:58.856Z,964.18
2022-08-09T10:54:58.746Z,964.17
2022-08-09T10:58:00.121Z,964.05
2022-08-09T11:03:06.530Z,964.11
2022-08-09T11:04:27.721Z,964.12
2022-08-09T11:07:00.345Z,964.11
2022-08-09T11:09:59.805Z,964.04
2022-08-09T11:12:58.626Z,964.02
2022-08-09T11:16:04.635Z,963.95
2022-08-09T11:18:59.254Z,963.89
2022-08-09T11:22:10.377Z,963.93
2022-08-09T11:24:58.334Z,963.95
2022-08-09T11:28:08.153Z,963.87
2022-08-09T11:30:59.136Z,964.03
2022-08-09T11:33:58.951Z,963.95
2022-08-09T11:36:59.030Z,963.99
2022-08-09T11:39:59.463Z,964.03
2022-08-09T11:42:59.059Z,963.92
2022-08-09T11:45:58.814Z,964.21
2022-08-09T11:48:58.731Z,963.99
2022-08-09T11:53:11.404Z,963.97
2022-08-09T11:54:57.787Z,964.06
2022-08-09T11:58:02.392Z,963.97
2022-08-09T12:00:58.703Z,963.96
2022-08-09T12:03:58.443Z,963.94
2022-08-09T12:06:58.686Z,963.84
2022-08-09T12:09:59.577Z,963.82
2022-08-09T12:12:59.443Z,963.8
2022-08-09T12:16:01.514Z,963.81
2022-08-09T12:18:59.477Z,963.82
2022-08-09T12:21:58.757Z,963.81
2022-08-09T12:24:58.367Z,963.88
2022-08-09T12:29:14.709Z,963.77
2022-08-09T12:30:58.623Z,963.81
2022-08-09T12:34:01.343Z,963.63
2022-08-09T12:36:58.945Z,963.71
2022-08-09T12:39:59.039Z,963.59
2022-08-09T12:42:59.363Z,963.63
2022-08-09T12:46:00.492Z,963.72
2022-08-09T12:48:59.020Z,963.71
2022-08-09T12:52:01.541Z,963.54
2022-08-09T12:55:03.112Z,963.63
2022-08-09T12:57:59.198Z,963.62
2022-08-09T13:00:59.514Z,963.53
2022-08-09T13:03:59.413Z,963.56
2022-08-09T13:06:58.845Z,963.47
2022-08-09T13:10:01.531Z,963.59
2022-08-09T13:13:09.026Z,963.46
2022-08-09T13:15:59.358Z,963.53
2022-08-09T13:18:58.854Z,963.54
2022-08-09T13:22:37.695Z,963.49
2022-08-09T13:24:59.071Z,963.48
2022-08-09T13:27:58.580Z,963.45
2022-08-09T13:32:15.020Z,963.36
2022-08-09T13:33:59.135Z,963.43
2022-08-09T13:36:58.691Z,963.36
2022-08-09T13:41:50.737Z,963.33
2022-08-09T13:42:58.609Z,963.32
2022-08-09T13:46:43.633Z,963.29
2022-08-09T13:48:58.483Z,963.32
2022-08-09T13:52:01.102Z,963.23
2022-08-09T13:55:02.185Z,963.33
2022-08-09T13:57:59.529Z,963.2
2022-08-09T14:00:59.408Z,963.23
2022-08-09T14:04:02.578Z,963.29
2022-08-09T14:06:58.859Z,963.24
2022-08-09T14:09:59.885Z,963.26
2022-08-09T14:12:59.332Z,963.17
2022-08-09T14:16:06.499Z,963.31
2022-08-09T14:18:59.654Z,963.37
2022-08-09T14:21:59.801Z,963.21
2022-08-09T14:24:59.842Z,963.15
2022-08-09T14:27:59.958Z,963.31
2022-08-09T14:30:59.027Z,963.14
2022-08-09T14:33:59.091Z,963.24
2022-08-09T14:36:59.629Z,963.16
2022-08-09T14:39:59.348Z,963.25
2022-08-09T14:42:59.191Z,963.32
2022-08-09T14:47:00.749Z,963.27
2022-08-09T14:48:59.253Z,963.22
2022-08-09T14:52:01.990Z,963.24
2022-08-09T14:54:58.830Z,963.2
2022-08-09T14:57:59.333Z,963.23
2022-08-09T15:01:04.719Z,963.26
2022-08-09T15:03:58.775Z,963.18
2022-08-09T15:06:58.586Z,963.2
2022-08-09T15:10:07.656Z,963.17
2022-08-09T15:12:59.057Z,963.26
2022-08-09T15:15:58.717Z,963.17
2022-08-09T15:18:59.774Z,963.15
2022-08-09T15:22:02.259Z,963.14
2022-08-09T15:24:58.830Z,963.21
2022-08-09T15:28:01.103Z,963.12
2022-08-09T15:31:11.701Z,963.09
2022-08-09T15:34:17.574Z,963.04
2022-08-09T15:36:59.651Z,963.08
2022-08-09T15:39:59.878Z,963.11
2022-08-09T15:42:59.763Z,963.02
2022-08-09T15:46:28.107Z,963.08
2022-08-09T15:49:20.899Z,963.09
2022-08-09T15:52:04.776Z,963.0
2022-08-09T15:54:59.528Z,963.03
2022-08-09T15:57:59.425Z,962.99
2022-08-09T16:00:59.589Z,962.96
2022-08-09T16:03:59.221Z,962.99
2022-08-09T16:06:59.293Z,962.93
2022-08-09T16:10:04.534Z,963.0
2022-08-09T16:12:59.203Z,962.99
2022-08-09T16:16:04.363Z,962.98
2022-08-09T16:18:59.068Z,962.95
2022-08-09T16:21:59.158Z,962.95
2022-08-09T16:24:59.723Z,962.87
2022-08-09T16:27:59.633Z,962.89
2022-08-09T16:30:59.863Z,962.92
2022-08-09T16:34:04.077Z,962.92
2022-08-09T16:36:59.949Z,962.9
2022-08-09T16:40:05.628Z,962.95
2022-08-09T16:42:59.441Z,962.95
2022-08-09T16:45:59.843Z,962.79
2022-08-09T16:49:12.653Z,962.82
2022-08-09T16:51:59.028Z,962.86
2022-08-09T16:54:59.881Z,962.86
2022-08-09T16:58:09.887Z,962.83
2022-08-09T17:01:00.252Z,962.83
2022-08-09T17:03:59.172Z,962.92
2022-08-09T17:08:41.625Z,962.98
2022-08-09T17:10:01.857Z,962.98
2022-08-09T17:12:59.435Z,963.01
2022-08-09T17:16:00.127Z,963.01
2022-08-09T17:18:59.468Z,963.08
2022-08-09T17:21:58.891Z,962.98
2022-08-09T17:25:03.055Z,963.05
2022-08-09T17:27:59.416Z,963.13
2022-08-09T17:31:01.694Z,963.2
2022-08-09T17:33:58.950Z,963.12
2022-08-09T17:36:58.747Z,963.1
2022-08-09T17:39:59.374Z,963.18
2022-08-09T17:43:10.839Z,963.08
2022-08-09T17:46:03.554Z,963.05
2022-08-09T17:48:58.797Z,963.15
2022-08-09T17:51:58.825Z,963.08
2022-08-09T17:54:58.571Z,963.11
2022-08-09T17:58:03.007Z,963.1
2022-08-09T18:01:25.999Z,963.11
2022-08-09T18:03:59.138Z,963.04
2022-08-09T18:06:58.825Z,963.08
2022-08-09T18:10:04.546Z,963.08
2022-08-09T18:13:53.573Z,963.07
2022-08-09T18:16:07.632Z,963.12
2022-08-09T18:19:03.469Z,963.15
2022-08-09T18:21:58.885Z,963.18
2022-08-09T18:24:58.615Z,963.23
2022-08-09T18:28:02.142Z,963.18
2022-08-09T18:30:59.369Z,963.26
2022-08-09T18:33:58.422Z,963.25
2022-08-09T18:36:59.173Z,963.25
2022-08-09T18:39:59.517Z,963.25
2022-08-09T18:42:58.497Z,963.26
2022-08-09T18:46:46.218Z,963.32
2022-08-09T18:49:01.814Z,963.38
2022-08-09T18:51:59.419Z,963.39
2022-08-09T18:54:58.459Z,963.45
2022-08-09T18:57:58.233Z,963.48
2022-08-09T19:00:59.514Z,963.45
2022-08-09T19:04:05.948Z,963.54
2022-08-09T19:06:58.398Z,963.64
2022-08-09T19:10:14.368Z,963.58
2022-08-09T19:13:16.504Z,963.67
2022-08-09T19:15:59.614Z,963.67
2022-08-09T19:18:58.710Z,963.67
2022-08-09T19:22:06.334Z,963.64
2022-08-09T19:25:07.601Z,963.7
2022-08-09T19:27:58.882Z,963.79
2022-08-09T19:30:59.483Z,963.67
2022-08-09T19:33:58.913Z,963.64
2022-08-09T19:36:58.863Z,963.74
2022-08-09T19:40:05.072Z,963.64
2022-08-09T19:42:59.044Z,963.78
2022-08-09T19:45:59.238Z,963.82
2022-08-09T19:49:00.385Z,963.83
2022-08-09T19:51:59.740Z,963.79
2022-08-09T19:54:59.757Z,963.79
2022-08-09T19:57:58.642Z,963.86
2022-08-09T20:00:59.438Z,963.86
2022-08-09T20:04:17.341Z,963.86
2022-08-09T20:06:58.720Z,963.9
2022-08-09T20:09:59.057Z,963.91
2022-08-09T20:13:00.230Z,963.81
2022-08-09T20:16:33.818Z,963.79
2022-08-09T20:19:42.966Z,963.81
2022-08-09T20:22:00.180Z,963.88
2022-08-09T20:24:59.387Z,963.9
2022-08-09T20:27:58.919Z,963.87
2022-08-09T20:30:59.324Z,963.9
2022-08-09T20:34:02.161Z,963.89
2022-08-09T20:36:59.409Z,963.89
2022-08-09T20:40:17.649Z,963.82
2022-08-09T20:43:00.259Z,963.89
2022-08-09T20:46:15.169Z,963.96
2022-08-09T20:48:58.893Z,963.95
2022-08-09T20:52:00.306Z,963.98
2022-08-09T20:54:58.745Z,964.05
2022-08-09T20:58:08.081Z,964.01
2022-08-09T21:01:14.271Z,963.94
2022-08-09T21:05:49.521Z,964.07
2022-08-09T21:06:59.844Z,963.99
2022-08-09T21:09:58.786Z,963.98
2022-08-09T21:15:59.182Z,964.01
2022-08-09T21:19:01.436Z,964.07
2022-08-09T21:21:59.706Z,964.05
2022-08-09T21:24:59.949Z,964.05
2022-08-09T21:27:58.962Z,964.08
2022-08-09T21:30:59.220Z,964.01
2022-08-09T21:33:59.288Z,964.2
2022-08-09T21:36:59.529Z,964.19
2022-08-09T21:39:58.898Z,964.14
2022-08-09T21:42:58.965Z,964.17
2022-08-09T21:45:59.107Z,964.19
2022-08-09T21:48:58.812Z,964.23
2022-08-09T21:51:59.041Z,964.19
2022-08-09T21:55:03.698Z,964.12
2022-08-09T21:58:00.276Z,964.12
2022-08-09T22:00:59.686Z,964.15
2022-08-09T22:03:59.533Z,964.16
2022-08-09T22:06:59.169Z,964.15
2022-08-09T22:09:58.860Z,964.23
2022-08-09T22:12:58.398Z,964.15
2022-08-09T22:15:59.528Z,964.09
2022-08-09T22:18:59.380Z,964.06
2022-08-09T22:21:59.246Z,964.04
2022-08-09T22:26:07.259Z,964.06
2022-08-09T22:27:59.044Z,964.1
2022-08-09T22:30:59.545Z,964.09
2022-08-09T22:33:58.842Z,964.18
2022-08-09T22:36:59.012Z,964.1
2022-08-09T22:39:59.209Z,964.15
2022-08-09T22:42:59.111Z,964.16
2022-08-09T22:48:15.361Z,964.09
2022-08-09T22:49:00.053Z,964.09
2022-08-09T22:51:59.105Z,964.25
2022-08-09T22:54:58.759Z,964.13
2022-08-09T22:57:59.847Z,964.22
2022-08-09T23:00:59.802Z,964.15
2022-08-09T23:04:03.833Z,964.19
2022-08-09T23:06:58.493Z,964.13
2022-08-09T23:09:59.646Z,964.13
2022-08-09T23:12:58.477Z,964.13
2022-08-09T23:16:03.263Z,964.07
2022-08-09T23:18:59.305Z,964.1
2022-08-09T23:21:58.437Z,964.18
2022-08-09T23:24:59.134Z,964.05
2022-08-09T23:28:15.346Z,964.15
2022-08-09T23:31:09.189Z,964.03
2022-08-09T23:33:58.219Z,964.05
2022-08-09T23:36:59.247Z,964.08
2022-08-09T23:39:59.415Z,964.01
2022-08-09T23:42:58.268Z,964.02
2022-08-09T23:45:59.139Z,964.01
2022-08-09T23:48:59.090Z,963.98
2022-08-09T23:51:58.925Z,963.89
2022-08-09T23:54:58.981Z,963.92
2022-08-09T23:58:10.345Z,963.97
